Time;durP1;ratioP1;P1;durP2;ratioP2;P2;SDS_P1;SDS_P2;PMS_P1;PMS_P2;Temp;Humidity;BMP_temperature;BMP_pressure;BME280_temperature;BME280_humidity;BME280_pressure;Samples;Min_cycle;Max_cycle;Signal;HPM_P1;HPM_P2
2023/06/05 00:02:16;;;;;;;5.93;3.38;;;12.30;99.90;;;;;;5012701;28;20064;-80
2023/06/05 00:04:43;;;;;;;4.82;3.70;;;12.70;99.90;;;;;;5016423;28;20486;-80
2023/06/05 00:07:09;;;;;;;4.82;3.67;;;12.40;99.90;;;;;;5021848;28;20046;-80
2023/06/05 00:09:36;;;;;;;4.90;3.80;;;12.30;99.90;;;;;;5023465;28;20555;-80
2023/06/05 00:12:02;;;;;;;7.60;4.25;;;12.30;99.90;;;;;;5022425;28;20045;-80
2023/06/05 00:14:30;;;;;;;3.92;3.38;;;12.30;99.90;;;;;;5012070;28;20046;-79
2023/06/05 00:16:57;;;;;;;6.28;4.00;;;12.30;99.90;;;;;;5014646;28;20091;-80
2023/06/05 00:19:23;;;;;;;3.65;3.38;;;12.30;99.90;;;;;;5011876;28;20052;-80
2023/06/05 00:21:50;;;;;;;4.63;3.17;;;12.40;99.90;;;;;;5012667;28;20045;-80
2023/06/05 00:24:16;;;;;;;6.13;3.60;;;13.60;99.90;;;;;;5012746;28;20046;-79
2023/06/05 00:26:41;;;;;;;5.95;3.85;;;12.30;99.90;;;;;;5016154;28;20057;-80
2023/06/05 00:29:07;;;;;;;6.00;3.17;;;12.80;99.90;;;;;;5011225;28;20045;-80
2023/06/05 00:31:33;;;;;;;8.85;4.10;;;12.40;99.90;;;;;;5009933;28;20625;-80
2023/06/05 00:33:59;;;;;;;5.68;3.92;;;12.80;99.90;;;;;;5012289;28;20687;-80
2023/06/05 00:36:24;;;;;;;4.00;3.60;;;12.30;99.90;;;;;;4996353;28;20046;-79
2023/06/05 00:38:50;;;;;;;3.83;3.47;;;12.30;99.90;;;;;;5023033;28;20139;-79
2023/06/05 00:41:16;;;;;;;3.90;3.10;;;12.20;99.90;;;;;;5020167;28;20073;-80
2023/06/05 00:43:42;;;;;;;3.85;3.00;;;12.60;99.90;;;;;;5020599;28;20045;-80
2023/06/05 00:46:08;;;;;;;8.02;3.45;;;12.20;99.90;;;;;;5018444;28;20456;-80
2023/06/05 00:48:34;;;;;;;3.72;2.97;;;12.20;99.90;;;;;;5019527;28;20624;-79
2023/06/05 00:51:00;;;;;;;4.45;3.17;;;12.40;99.90;;;;;;5018532;28;20057;-79
2023/06/05 00:53:32;;;;;;;3.70;3.10;;;12.10;99.90;;;;;;5002188;28;20037;-79
2023/06/05 00:55:58;;;;;;;5.07;3.70;;;12.10;99.90;;;;;;4982615;28;20123;-79
2023/06/05 00:58:25;;;;;;;4.22;3.83;;;12.10;99.90;;;;;;5014236;28;20076;-79
2023/06/05 01:00:51;;;;;;;4.70;3.88;;;12.10;99.90;;;;;;5009015;28;20037;-79
2023/06/05 01:03:16;;;;;;;7.70;3.50;;;12.10;99.90;;;;;;5021857;28;20037;-78
2023/06/05 01:05:43;;;;;;;5.60;3.67;;;12.10;99.90;;;;;;5009491;28;20073;-79
2023/06/05 01:08:09;;;;;;;3.75;3.45;;;13.80;99.90;;;;;;5018632;28;20034;-79
2023/06/05 01:10:35;;;;;;;6.80;3.88;;;12.90;99.90;;;;;;4999655;28;20473;-79
2023/06/05 01:13:00;;;;;;;6.28;3.63;;;12.90;99.90;;;;;;5017659;28;20030;-79
2023/06/05 01:15:28;;;;;;;5.68;4.03;;;12.10;99.90;;;;;;5015105;28;20793;-79
2023/06/05 01:17:58;;;;;;;8.18;3.58;;;12.60;99.90;;;;;;5015453;28;20052;-79
2023/06/05 01:20:33;;;;;;;5.85;3.65;;;12.20;99.90;;;;;;5013305;28;20083;-79
2023/06/05 01:22:58;;;;;;;4.65;4.13;;;12.20;99.90;;;;;;5010926;28;20053;-80
2023/06/05 01:25:29;;;;;;;6.35;3.50;;;12.70;99.90;;;;;;5019523;28;20141;-81
2023/06/05 01:28:05;;;;;;;3.45;3.15;;;12.20;99.90;;;;;;5020562;28;20045;-81
2023/06/05 01:30:38;;;;;;;5.68;3.03;;;12.10;99.90;;;;;;5003014;28;20721;-81
2023/06/05 01:33:17;;;;;;;4.53;3.20;;;12.10;99.90;;;;;;5012194;28;20540;-81
2023/06/05 01:35:45;;;;;;;4.47;3.53;;;12.10;99.90;;;;;;5014589;28;20124;-81
2023/06/05 01:38:12;;;;;;;6.07;3.55;;;13.00;99.90;;;;;;5010423;28;20037;-81
2023/06/05 01:40:39;;;;;;;4.93;3.40;;;12.10;99.90;;;;;;5008261;28;20077;-81
2023/06/05 01:43:07;;;;;;;3.20;2.90;;;12.10;99.90;;;;;;4996924;28;20512;-79
2023/06/05 01:45:33;;;;;;;6.15;3.25;;;12.10;99.90;;;;;;5018423;28;20389;-79
2023/06/05 01:47:59;;;;;;;7.35;3.55;;;12.10;99.90;;;;;;5007574;28;20564;-80
2023/06/05 01:50:26;;;;;;;3.92;3.25;;;12.10;99.90;;;;;;5021132;28;20132;-79
2023/06/05 01:52:52;;;;;;;4.60;3.30;;;12.20;99.90;;;;;;5015554;28;20103;-81
2023/06/05 01:55:26;;;;;;;4.82;3.20;;;13.30;99.90;;;;;;5021526;28;20042;-81
2023/06/05 01:57:52;;;;;;;5.45;3.15;;;12.20;99.90;;;;;;5020902;28;20095;-81
2023/06/05 02:00:18;;;;;;;5.25;3.45;;;12.30;99.90;;;;;;5021253;28;20116;-81
2023/06/05 02:02:46;;;;;;;6.53;3.20;;;12.20;99.90;;;;;;5000857;28;20038;-81
2023/06/05 02:05:14;;;;;;;9.25;3.30;;;12.20;99.90;;;;;;5006819;28;20729;-81
2023/06/05 02:07:41;;;;;;;5.15;3.38;;;12.20;99.90;;;;;;5011124;28;20643;-81
2023/06/05 02:10:08;;;;;;;6.72;3.35;;;12.80;99.90;;;;;;5002937;28;20524;-81
2023/06/05 02:12:34;;;;;;;4.00;3.60;;;12.20;99.90;;;;;;4999489;28;20053;-80
2023/06/05 02:15:00;;;;;;;4.18;3.78;;;12.10;99.90;;;;;;5000950;28;20046;-79
2023/06/05 02:17:26;;;;;;;4.68;4.13;;;13.30;99.90;;;;;;4986678;28;20625;-79
2023/06/05 02:19:52;;;;;;;6.80;3.90;;;12.20;99.90;;;;;;5015839;28;20125;-80
2023/06/05 02:22:18;;;;;;;4.97;3.13;;;12.20;99.90;;;;;;5007922;28;20129;-80
2023/06/05 02:24:44;;;;;;;3.75;3.25;;;13.70;99.90;;;;;;4992245;28;20034;-80
2023/06/05 02:27:10;;;;;;;7.15;4.47;;;12.70;99.90;;;;;;5000127;28;20085;-79
2023/06/05 02:29:38;;;;;;;8.63;4.22;;;13.00;99.90;;;;;;4999326;28;20034;-80
2023/06/05 02:32:06;;;;;;;4.63;3.85;;;13.40;99.90;;;;;;4999723;28;20441;-80
2023/06/05 02:34:32;;;;;;;4.50;4.03;;;12.00;99.90;;;;;;4999430;28;20041;-79
2023/06/05 02:36:58;;;;;;;6.30;4.43;;;13.40;99.90;;;;;;4989295;28;20378;-80
2023/06/05 02:39:25;;;;;;;6.70;4.05;;;12.00;99.90;;;;;;5000636;28;20033;-80
2023/06/05 02:41:53;;;;;;;6.72;4.03;;;13.30;99.90;;;;;;4999704;28;20042;-80
2023/06/05 02:44:19;;;;;;;5.43;3.92;;;13.40;99.90;;;;;;4999689;28;20046;-80
2023/06/05 02:46:44;;;;;;;5.70;4.45;;;12.10;99.90;;;;;;4999951;28;20044;-80
2023/06/05 02:49:10;;;;;;;8.73;4.47;;;12.10;99.90;;;;;;4997519;28;20077;-80
2023/06/05 02:51:36;;;;;;;4.40;4.00;;;12.10;99.90;;;;;;4987750;28;20122;-80
2023/06/05 02:54:02;;;;;;;8.25;4.53;;;12.10;99.90;;;;;;5001990;28;20420;-80
2023/06/05 02:56:29;;;;;;;5.93;4.10;;;12.30;99.90;;;;;;5003865;28;20509;-80
2023/06/05 02:58:56;;;;;;;8.18;5.18;;;12.10;99.90;;;;;;5017711;28;20038;-81
2023/06/05 03:01:22;;;;;;;10.05;4.35;;;13.00;99.90;;;;;;5004304;28;20137;-80
2023/06/05 03:03:48;;;;;;;5.57;4.28;;;12.10;99.90;;;;;;4995364;28;20088;-81
2023/06/05 03:06:17;;;;;;;7.22;4.60;;;13.20;99.90;;;;;;5013529;28;20045;-81
2023/06/05 03:08:43;;;;;;;6.90;4.72;;;12.40;99.90;;;;;;5016037;28;20132;-81
2023/06/05 03:11:09;;;;;;;8.88;4.63;;;12.10;99.90;;;;;;5002116;28;20118;-81
2023/06/05 03:13:35;;;;;;;5.80;5.18;;;12.20;99.90;;;;;;5015473;28;20116;-80
2023/06/05 03:16:01;;;;;;;7.45;4.45;;;12.70;99.90;;;;;;5015935;28;20046;-80
2023/06/05 03:18:29;;;;;;;6.90;4.88;;;12.20;99.90;;;;;;5011947;28;20100;-81
2023/06/05 03:20:56;;;;;;;5.68;4.03;;;12.20;99.90;;;;;;5032232;28;20053;-80
2023/06/05 03:23:27;;;;;;;7.93;4.80;;;12.30;99.90;;;;;;5010905;28;20068;-80
2023/06/05 03:25:53;;;;;;;5.50;4.30;;;12.20;99.90;;;;;;5011551;28;20045;-81
2023/06/05 03:28:20;;;;;;;5.05;4.35;;;13.30;99.90;;;;;;5017412;28;20052;-81
2023/06/05 03:30:46;;;;;;;5.38;4.38;;;12.20;99.90;;;;;;5019102;28;20061;-80
2023/06/05 03:33:13;;;;;;;6.90;5.22;;;12.30;99.90;;;;;;5023867;28;20394;-81
2023/06/05 03:35:40;;;;;;;7.55;5.35;;;13.00;99.90;;;;;;5016940;28;20075;-80
2023/06/05 03:38:06;;;;;;;5.75;4.95;;;12.30;99.90;;;;;;5017145;28;20069;-80
2023/06/05 03:40:31;;;;;;;5.85;4.90;;;13.40;99.90;;;;;;5016210;28;20065;-81
2023/06/05 03:42:57;;;;;;;5.85;4.40;;;12.30;99.90;;;;;;5022887;28;20038;-80
2023/06/05 03:45:25;;;;;;;8.13;4.85;;;13.00;99.90;;;;;;5020423;28;20547;-81
2023/06/05 03:47:50;;;;;;;6.90;5.57;;;12.40;99.90;;;;;;5025686;28;20061;-81
2023/06/05 03:50:16;;;;;;;7.80;5.15;;;12.40;99.90;;;;;;5009067;28;20064;-80
2023/06/05 03:52:42;;;;;;;8.40;5.32;;;12.30;99.90;;;;;;5003686;28;20041;-80
2023/06/05 03:55:09;;;;;;;6.55;5.13;;;12.80;99.90;;;;;;5021102;28;20366;-81
2023/06/05 03:57:37;;;;;;;11.73;6.45;;;12.40;99.90;;;;;;4997559;28;20042;-81
2023/06/05 04:00:09;;;;;;;8.57;5.88;;;12.40;99.90;;;;;;5003540;28;20041;-81
2023/06/05 04:02:36;;;;;;;10.30;6.38;;;12.40;99.90;;;;;;4990792;28;20648;-81
2023/06/05 04:05:03;;;;;;;9.13;6.47;;;12.70;99.90;;;;;;5007323;28;20729;-81
2023/06/05 04:07:29;;;;;;;8.55;6.30;;;12.40;99.90;;;;;;4995196;28;20065;-80
2023/06/05 04:09:55;;;;;;;7.95;5.80;;;12.40;99.90;;;;;;5004337;28;20120;-80
2023/06/05 04:12:21;;;;;;;8.32;5.55;;;12.40;99.90;;;;;;5002781;28;20481;-80
2023/06/05 04:14:47;;;;;;;6.65;5.90;;;12.40;99.90;;;;;;5003519;28;20096;-80
2023/06/05 04:17:13;;;;;;;8.90;6.07;;;12.40;99.90;;;;;;5004336;28;20050;-80
2023/06/05 04:19:40;;;;;;;8.93;5.53;;;13.50;99.90;;;;;;5004411;28;20108;-80
2023/06/05 04:22:06;;;;;;;8.85;5.82;;;12.50;99.90;;;;;;5002970;28;20636;-80
2023/06/05 04:24:32;;;;;;;6.40;5.13;;;12.40;99.90;;;;;;5003941;28;20026;-80
2023/06/05 04:27:00;;;;;;;6.28;5.68;;;14.10;99.90;;;;;;5001349;28;20497;-80
2023/06/05 04:29:26;;;;;;;7.50;5.93;;;11.00;99.90;;;;;;5000240;28;20046;-79
2023/06/05 04:31:52;;;;;;;6.20;5.28;;;12.80;99.90;;;;;;5004530;28;20050;-80
2023/06/05 04:34:18;;;;;;;5.65;5.10;;;13.70;99.90;;;;;;5002017;28;20042;-79
2023/06/05 04:36:44;;;;;;;6.80;5.40;;;12.90;99.90;;;;;;4996125;28;20044;-80
2023/06/05 04:39:18;;;;;;;5.75;4.85;;;12.50;99.90;;;;;;5001552;28;20064;-79
2023/06/05 04:41:45;;;;;;;6.70;4.55;;;12.70;99.90;;;;;;5004604;28;20113;-81
2023/06/05 04:44:12;;;;;;;4.63;4.22;;;12.50;99.90;;;;;;5004238;28;20483;-81
2023/06/05 04:46:39;;;;;;;3.63;3.30;;;12.50;99.90;;;;;;5004150;28;20124;-81
2023/06/05 04:49:09;;;;;;;3.72;3.08;;;12.50;99.90;;;;;;5004665;28;20057;-81
2023/06/05 04:51:36;;;;;;;3.22;2.50;;;12.50;99.90;;;;;;5002159;28;20125;-81
2023/06/05 04:54:02;;;;;;;3.58;2.17;;;12.50;99.90;;;;;;5005888;28;20049;-81
2023/06/05 04:56:28;;;;;;;1.75;1.65;;;13.50;99.90;;;;;;5004283;28;20051;-80
2023/06/05 04:58:53;;;;;;;1.65;1.55;;;12.50;99.90;;;;;;5013665;28;20128;-81
2023/06/05 05:01:19;;;;;;;3.75;1.98;;;12.50;99.90;;;;;;5017165;28;20137;-81
2023/06/05 05:03:46;;;;;;;2.13;1.50;;;12.50;99.90;;;;;;5008487;28;20046;-80
2023/06/05 05:06:16;;;;;;;1.52;1.40;;;12.50;99.90;;;;;;5018214;28;20041;-81
2023/06/05 05:08:48;;;;;;;1.80;1.70;;;12.50;99.90;;;;;;5012075;28;20518;-80
2023/06/05 05:11:14;;;;;;;1.63;1.30;;;12.50;99.90;;;;;;5014929;28;20044;-82
2023/06/05 05:13:40;;;;;;;1.77;1.67;;;13.40;99.90;;;;;;4992603;28;20557;-82
2023/06/05 05:16:07;;;;;;;4.07;1.52;;;12.50;99.90;;;;;;5017735;28;20125;-82
2023/06/05 05:18:40;;;;;;;1.70;1.60;;;12.50;99.90;;;;;;5000642;28;20050;-80
2023/06/05 05:21:06;;;;;;;1.63;1.52;;;11.00;99.90;;;;;;5015488;28;20045;-81
2023/06/05 05:23:33;;;;;;;2.50;1.85;;;12.50;99.90;;;;;;5016223;28;20049;-80
2023/06/05 05:25:59;;;;;;;1.55;1.33;;;12.50;99.90;;;;;;5013731;28;20049;-81
2023/06/05 05:28:25;;;;;;;1.80;1.42;;;12.50;99.90;;;;;;5008535;28;20416;-79
2023/06/05 05:30:51;;;;;;;2.63;1.52;;;12.50;99.90;;;;;;5008859;28;20038;-79
2023/06/05 05:33:18;;;;;;;3.05;1.35;;;13.50;99.90;;;;;;4316845;28;10000672;-79
2023/06/05 05:35:44;;;;;;;1.50;1.40;;;12.50;99.90;;;;;;5006624;28;20044;-78
2023/06/05 05:38:10;;;;;;;1.52;1.42;;;12.50;99.90;;;;;;4993101;28;20431;-78
2023/06/05 05:40:37;;;;;;;2.65;1.60;;;12.60;99.90;;;;;;5015219;28;20084;-77
2023/06/05 05:43:02;;;;;;;1.75;1.52;;;12.60;99.90;;;;;;4999413;28;20045;-79
2023/06/05 05:45:28;;;;;;;2.50;1.55;;;13.10;99.90;;;;;;4997509;28;20045;-81
2023/06/05 05:47:53;;;;;;;1.67;1.40;;;12.60;99.90;;;;;;5007698;28;20050;-79
2023/06/05 05:50:19;;;;;;;1.98;1.38;;;12.60;99.90;;;;;;4991655;28;20080;-80
2023/06/05 05:52:47;;;;;;;31.13;22.90;;;12.60;99.90;;;;;;5010391;28;20065;-76
2023/06/05 05:55:13;;;;;;;26.75;16.33;;;14.60;99.90;;;;;;5024148;28;20053;-78
2023/06/05 05:57:40;;;;;;;2.63;2.42;;;14.10;99.90;;;;;;5000245;28;20053;-80
2023/06/05 06:00:12;;;;;;;1.73;1.23;;;12.70;99.90;;;;;;4999208;28;20117;-79
2023/06/05 06:02:39;;;;;;;1.80;1.40;;;12.70;99.90;;;;;;5017430;28;20049;-78
2023/06/05 06:05:05;;;;;;;2.10;1.17;;;13.30;99.90;;;;;;5011596;28;20034;-78
2023/06/05 06:07:31;;;;;;;1.55;1.23;;;12.80;99.90;;;;;;5010652;28;20084;-78
2023/06/05 06:09:58;;;;;;;1.25;1.02;;;13.90;99.90;;;;;;5011591;28;20041;-78
2023/06/05 06:12:24;;;;;;;1.75;1.50;;;12.80;99.90;;;;;;5009830;28;20042;-79
2023/06/05 06:14:50;;;;;;;4.13;2.33;;;14.50;99.90;;;;;;4994377;28;20108;-80
2023/06/05 06:17:15;;;;;;;9.32;5.22;;;12.80;99.90;;;;;;5009024;28;20487;-80
2023/06/05 06:19:42;;;;;;;2.50;1.75;;;12.90;99.90;;;;;;5012092;28;20034;-80
2023/06/05 06:22:11;;;;;;;1.38;1.27;;;12.90;99.90;;;;;;5016082;28;20048;-80
2023/06/05 06:24:39;;;;;;;3.97;1.58;;;12.90;99.90;;;;;;5019994;28;20414;-80
2023/06/05 06:27:04;;;;;;;2.13;1.50;;;12.90;99.90;;;;;;5016974;28;20513;-80
2023/06/05 06:29:31;;;;;;;2.22;2.03;;;12.90;99.90;;;;;;5021837;28;20108;-81
2023/06/05 06:31:57;;;;;;;2.58;1.67;;;14.10;99.90;;;;;;5022301;28;20048;-81
2023/06/05 06:34:24;;;;;;;1.98;1.83;;;14.40;99.90;;;;;;5017944;28;20042;-81
2023/06/05 06:36:50;;;;;;;4.32;1.42;;;13.20;99.90;;;;;;5000216;28;20049;-80
2023/06/05 06:39:18;;;;;;;1.67;1.40;;;14.00;99.90;;;;;;5021889;28;20045;-81
2023/06/05 06:41:44;;;;;;;3.03;1.98;;;13.30;99.90;;;;;;5016113;28;20450;-80
2023/06/05 06:44:10;;;;;;;4.28;1.88;;;13.30;99.90;;;;;;5025028;28;20041;-80
2023/06/05 06:46:36;;;;;;;3.95;2.00;;;13.30;99.90;;;;;;5012844;28;20252;-79
2023/06/05 06:49:02;;;;;;;2.35;1.98;;;13.30;99.90;;;;;;5017657;28;20128;-79
2023/06/05 06:51:28;;;;;;;2.00;1.83;;;13.30;99.90;;;;;;5005317;28;20045;-79
2023/06/05 06:53:54;;;;;;;14.20;10.68;;;13.30;99.90;;;;;;5019692;28;20049;-79
2023/06/05 06:56:20;;;;;;;3.70;2.00;;;13.30;99.90;;;;;;5019409;28;20405;-78
2023/06/05 06:58:46;;;;;;;2.20;1.92;;;13.60;99.90;;;;;;5001144;28;20046;-80
2023/06/05 07:01:12;;;;;;;2.22;2.03;;;15.10;99.90;;;;;;5017364;28;20437;-78
2023/06/05 07:03:40;;;;;;;7.13;2.20;;;13.40;99.90;;;;;;5015053;28;20041;-78
2023/06/05 07:06:05;;;;;;;3.00;2.00;;;13.50;99.90;;;;;;5013148;28;20041;-83
2023/06/05 07:08:31;;;;;;;1.85;1.60;;;12.80;99.90;;;;;;5024914;28;20153;-83
2023/06/05 07:10:57;;;;;;;2.67;1.80;;;13.60;99.90;;;;;;5010230;28;20037;-81
2023/06/05 07:13:23;;;;;;;4.80;1.85;;;13.60;99.90;;;;;;5004055;28;20290;-83
2023/06/05 07:15:50;;;;;;;2.33;1.95;;;13.60;99.90;;;;;;5030056;28;20056;-81
2023/06/05 07:18:17;;;;;;;2.70;2.22;;;14.40;99.90;;;;;;5022349;28;20469;-83
2023/06/05 07:20:43;;;;;;;4.00;3.60;;;13.50;99.90;;;;;;5005097;28;20492;-82
2023/06/05 07:23:08;;;;;;;3.15;2.58;;;14.80;99.90;;;;;;5022532;28;20033;-81
2023/06/05 07:25:34;;;;;;;2.60;2.03;;;13.60;99.90;;;;;;5023687;28;20041;-83
2023/06/05 07:28:00;;;;;;;3.72;1.85;;;15.10;99.90;;;;;;5026421;28;20060;-83
2023/06/05 07:30:28;;;;;;;3.92;1.98;;;13.60;99.90;;;;;;5028692;28;20046;-83
2023/06/05 07:32:55;;;;;;;4.82;2.70;;;13.70;99.90;;;;;;5029933;28;20037;-83
2023/06/05 07:35:20;;;;;;;2.95;1.90;;;13.80;99.90;;;;;;5020742;28;20050;-81
2023/06/05 07:37:46;;;;;;;2.78;2.17;;;13.80;99.90;;;;;;5015260;28;20052;-82
2023/06/05 07:40:12;;;;;;;5.75;2.40;;;13.90;99.90;;;;;;5020712;28;20441;-83
2023/06/05 07:42:38;;;;;;;7.03;2.65;;;15.40;99.90;;;;;;5019149;28;20073;-82
2023/06/05 07:45:06;;;;;;;5.38;2.42;;;14.90;99.90;;;;;;5017504;28;20445;-83
2023/06/05 07:47:31;;;;;;;2.45;1.92;;;14.00;99.90;;;;;;5015207;28;20630;-81
2023/06/05 07:50:03;;;;;;;3.90;1.92;;;14.00;99.90;;;;;;5004396;28;20042;-83
2023/06/05 07:52:30;;;;;;;3.58;3.03;;;14.00;99.90;;;;;;5017942;28;20043;-83
2023/06/05 07:54:56;;;;;;;4.05;2.60;;;14.40;99.90;;;;;;5018138;28;20037;-83
2023/06/05 07:57:23;;;;;;;3.92;2.47;;;14.70;99.90;;;;;;5018104;28;20390;-81
2023/06/05 07:59:50;;;;;;;3.28;2.75;;;14.20;99.90;;;;;;5019579;28;20046;-82
2023/06/05 08:02:19;;;;;;;3.25;2.55;;;14.10;99.90;;;;;;5023951;28;20089;-82
2023/06/05 08:04:45;;;;;;;2.80;2.10;;;14.10;99.90;;;;;;5000429;28;20137;-81
2023/06/05 08:07:10;;;;;;;3.40;2.40;;;14.10;99.90;;;;;;5000753;28;20117;-82
2023/06/05 08:09:36;;;;;;;4.03;2.33;;;14.10;99.90;;;;;;5021197;28;20121;-83
2023/06/05 08:12:05;;;;;;;5.43;2.30;;;14.20;99.90;;;;;;5020786;28;20496;-83
2023/06/05 08:14:31;;;;;;;4.00;2.10;;;14.20;99.90;;;;;;5021178;28;20422;-83
2023/06/05 08:16:57;;;;;;;4.90;2.25;;;14.20;99.90;;;;;;5021576;28;20508;-83
2023/06/05 08:19:23;;;;;;;3.35;2.70;;;14.30;99.90;;;;;;5019298;28;20093;-83
2023/06/05 08:21:54;;;;;;;3.83;2.28;;;14.40;99.90;;;;;;5022277;28;20041;-82
2023/06/05 08:24:20;;;;;;;3.28;2.58;;;14.40;99.90;;;;;;5021401;28;20038;-81
2023/06/05 08:26:46;;;;;;;4.05;2.92;;;14.90;99.90;;;;;;5026100;28;20053;-85
2023/06/05 08:29:15;;;;;;;2.22;2.03;;;14.50;99.90;;;;;;5025684;28;20033;-85
2023/06/05 08:31:40;;;;;;;2.28;2.08;;;14.60;99.90;;;;;;5022167;28;20064;-84
2023/06/05 08:34:06;;;;;;;2.88;2.50;;;14.60;99.90;;;;;;5021192;28;20038;-84
2023/06/05 08:36:32;;;;;;;4.07;2.40;;;15.90;99.90;;;;;;5020516;28;20492;-82
2023/06/05 08:39:00;;;;;;;2.97;2.67;;;14.80;99.90;;;;;;5017890;28;20073;-84
2023/06/05 08:41:30;;;;;;;4.50;2.30;;;14.80;99.90;;;;;;5032344;28;20398;-84
2023/06/05 08:43:56;;;;;;;4.55;2.08;;;14.80;99.90;;;;;;5003766;28;20038;-85
2023/06/05 08:46:22;;;;;;;3.13;2.20;;;14.90;99.90;;;;;;5022315;28;20033;-84
2023/06/05 08:48:53;;;;;;;2.05;1.85;;;14.90;99.90;;;;;;5024249;28;20265;-83
2023/06/05 08:51:19;;;;;;;2.42;2.00;;;15.00;99.90;;;;;;5024225;28;20520;-84
2023/06/05 08:54:12;;;;;;;2.83;2.38;;;15.00;99.90;;;;;;5018362;28;20417;-83
2023/06/05 08:56:39;;;;;;;13.75;9.27;;;15.00;99.90;;;;;;5022059;28;20054;-84
2023/06/05 08:59:06;;;;;;;2.45;2.25;;;15.00;99.90;;;;;;5023603;28;20051;-85
2023/06/05 09:01:35;;;;;;;2.35;2.08;;;15.00;99.90;;;;;;5024433;28;20045;-80
2023/06/05 09:04:01;;;;;;;5.60;1.80;;;15.10;99.90;;;;;;5027748;28;20139;-84
2023/06/05 09:06:27;;;;;;;2.55;2.08;;;15.20;99.90;;;;;;4988922;28;20076;-84
2023/06/05 09:08:54;;;;;;;3.88;2.30;;;15.00;99.90;;;;;;5016736;28;20042;-83
2023/06/05 09:11:30;;;;;;;2.70;2.00;;;15.10;99.90;;;;;;5024953;28;20041;-79
2023/06/05 09:13:57;;;;;;;3.70;2.10;;;16.40;99.90;;;;;;5023202;28;20034;-83
2023/06/05 09:16:36;;;;;;;2.17;2.03;;;15.60;99.90;;;;;;5023868;28;20096;-83
2023/06/05 09:19:02;;;;;;;3.53;2.90;;;15.10;99.90;;;;;;4991528;28;20041;-83
2023/06/05 09:21:31;;;;;;;3.28;2.97;;;15.20;99.90;;;;;;5026592;28;20041;-83
2023/06/05 09:24:14;;;;;;;3.63;2.85;;;15.20;99.90;;;;;;5021579;28;20120;-83
2023/06/05 09:26:52;;;;;;;2.58;2.30;;;16.20;99.90;;;;;;5012748;28;20124;-83
2023/06/05 09:29:32;;;;;;;3.45;2.67;;;16.20;99.90;;;;;;5014614;28;20041;-83
2023/06/05 09:31:59;;;;;;;4.03;2.40;;;15.30;99.90;;;;;;5011272;28;20047;-83
2023/06/05 09:34:32;;;;;;;4.72;2.92;;;15.30;99.90;;;;;;5021677;28;20116;-83
2023/06/05 09:37:05;;;;;;;3.28;2.78;;;15.40;99.90;;;;;;5019551;28;20037;-83
2023/06/05 09:39:33;;;;;;;6.50;4.00;;;15.40;99.90;;;;;;5017370;28;20132;-82
2023/06/05 09:41:59;;;;;;;3.08;2.88;;;15.70;99.90;;;;;;5022473;28;20041;-83
2023/06/05 09:44:27;;;;;;;4.60;3.00;;;15.50;99.90;;;;;;5021815;28;20121;-83
2023/06/05 09:47:08;;;;;;;4.13;3.30;;;15.50;99.90;;;;;;5003826;28;20037;-83
2023/06/05 09:49:39;;;;;;;3.92;2.90;;;15.60;99.90;;;;;;5020536;28;20092;-84
2023/06/05 09:52:10;;;;;;;2.40;2.20;;;15.60;99.90;;;;;;5004371;28;20041;-85
2023/06/05 09:54:37;;;;;;;3.35;2.65;;;15.60;99.90;;;;;;5019790;28;20057;-85
2023/06/05 09:57:05;;;;;;;3.55;2.58;;;15.70;99.90;;;;;;5017602;28;20111;-82
2023/06/05 09:59:33;;;;;;;4.00;2.75;;;15.70;99.90;;;;;;5017666;28;20041;-81
2023/06/05 10:02:04;;;;;;;7.25;3.38;;;16.60;99.90;;;;;;5002726;28;20025;-82
2023/06/05 10:04:33;;;;;;;3.17;2.90;;;15.80;99.90;;;;;;5021548;28;20046;-82
2023/06/05 10:07:03;;;;;;;3.70;2.53;;;17.30;99.90;;;;;;5022841;28;20385;-81
2023/06/05 10:09:31;;;;;;;2.92;2.63;;;15.90;99.90;;;;;;5021979;28;20087;-84
2023/06/05 10:11:58;;;;;;;3.25;2.42;;;16.10;99.90;;;;;;5000932;28;20056;-84
2023/06/05 10:14:24;;;;;;;3.92;3.10;;;16.10;99.90;;;;;;5018709;28;20038;-82
2023/06/05 10:16:51;;;;;;;5.25;3.17;;;16.50;99.90;;;;;;5009964;28;20052;-83
2023/06/05 10:19:19;;;;;;;4.00;2.72;;;16.20;99.90;;;;;;5000041;28;20041;-82
2023/06/05 10:21:49;;;;;;;2.42;2.22;;;16.30;99.90;;;;;;5020923;28;20041;-83
2023/06/05 10:24:28;;;;;;;2.95;2.60;;;16.30;99.90;;;;;;5003857;28;20064;-81
2023/06/05 10:27:12;;;;;;;3.22;2.72;;;16.30;99.90;;;;;;5010093;28;20037;-82
2023/06/05 10:30:10;;;;;;;3.35;3.03;;;16.40;99.90;;;;;;5019393;28;20073;-83
2023/06/05 10:32:39;;;;;;;2.90;2.70;;;16.40;99.90;;;;;;5023813;28;20409;-82
2023/06/05 10:35:46;;;;;;;4.13;2.78;;;16.50;99.90;;;;;;5021407;28;20049;-83
2023/06/05 10:38:25;;;;;;;2.65;2.45;;;16.60;99.90;;;;;;4978520;28;20355;-83
2023/06/05 10:40:53;;;;;;;5.20;2.85;;;16.70;99.90;;;;;;5002368;28;20053;-82
2023/06/05 10:43:32;;;;;;;3.38;3.08;;;16.80;99.90;;;;;;5021595;28;20042;-81
2023/06/05 10:46:22;;;;;;;4.20;2.60;;;16.90;99.90;;;;;;5010173;28;20145;-82
2023/06/05 10:49:15;;;;;;;4.07;2.17;;;16.90;99.90;;;;;;5016584;28;20487;-83
2023/06/05 10:51:51;;;;;;;4.45;2.40;;;17.00;99.90;;;;;;5001402;28;20728;-83
2023/06/05 10:54:23;;;;;;;2.50;2.20;;;17.10;99.90;;;;;;5017350;28;20108;-82
2023/06/05 10:56:52;;;;;;;4.13;2.70;;;17.30;99.90;;;;;;5002856;28;20100;-83
2023/06/05 10:59:20;;;;;;;3.03;2.50;;;18.80;99.90;;;;;;5004258;28;20045;-83
2023/06/05 11:02:08;;;;;;;2.25;2.15;;;17.40;99.90;;;;;;5019621;28;20033;-83
2023/06/05 11:04:49;;;;;;;2.70;2.50;;;17.70;99.90;;;;;;5027073;28;20092;-82
2023/06/05 11:07:25;;;;;;;2.65;2.45;;;17.60;99.90;;;;;;5007778;28;20080;-81
2023/06/05 11:10:02;;;;;;;6.05;5.00;;;17.70;99.90;;;;;;5022096;28;20077;-81
2023/06/05 11:12:40;;;;;;;5.00;3.78;;;17.80;99.90;;;;;;5022860;28;20050;-83
2023/06/05 11:15:08;;;;;;;3.40;2.85;;;19.40;99.90;;;;;;5023547;28;20037;-82
2023/06/05 11:17:47;;;;;;;3.85;2.25;;;19.00;99.90;;;;;;4985487;28;20046;-84
2023/06/05 11:20:25;;;;;;;3.88;2.22;;;18.10;99.90;;;;;;5020624;28;20044;-82
2023/06/05 11:22:53;;;;;;;2.83;2.63;;;18.30;99.90;;;;;;5020129;28;20049;-84
2023/06/05 11:25:24;;;;;;;3.42;2.42;;;18.30;99.90;;;;;;5017084;28;20037;-81
2023/06/05 11:28:05;;;;;;;2.90;2.70;;;18.40;99.90;;;;;;5020706;28;20057;-82
2023/06/05 11:30:38;;;;;;;2.95;2.30;;;18.50;99.90;;;;;;5026579;28;20038;-84
2023/06/05 11:33:08;;;;;;;2.17;2.08;;;18.70;99.90;;;;;;4992485;28;20133;-80
2023/06/05 11:35:35;;;;;;;3.30;2.50;;;18.70;99.90;;;;;;5012646;28;20068;-83
2023/06/05 11:38:24;;;;;;;4.55;2.28;;;18.70;99.90;;;;;;4996223;28;20600;-85
2023/06/05 11:40:50;;;;;;;3.55;2.83;;;18.90;99.90;;;;;;5020740;28;20045;-84
2023/06/05 11:43:16;;;;;;;2.72;2.53;;;19.00;99.90;;;;;;5019089;28;20088;-82
2023/06/05 11:45:51;;;;;;;2.45;2.25;;;19.20;99.90;;;;;;5002247;28;20464;-82
2023/06/05 11:48:17;;;;;;;4.55;1.80;;;19.30;99.90;;;;;;5007329;28;20076;-83
2023/06/05 11:51:03;;;;;;;6.10;3.78;;;19.40;99.90;;;;;;4999069;28;20133;-84
2023/06/05 11:53:31;;;;;;;4.75;2.15;;;19.60;99.90;;;;;;5016570;28;20153;-84
2023/06/05 11:58:30;;;;;;;1.98;1.88;;;19.90;99.90;;;;;;5021115;28;20084;-84
2023/06/05 12:01:09;;;;;;;2.10;1.63;;;19.80;99.90;;;;;;5019169;28;20502;-83
2023/06/05 12:03:35;;;;;;;1.30;1.20;;;19.90;99.90;;;;;;5019229;28;20049;-82
2023/06/05 12:06:04;;;;;;;3.47;2.30;;;19.90;99.90;;;;;;5026146;28;20389;-83
2023/06/05 12:08:33;;;;;;;2.25;1.88;;;20.00;99.90;;;;;;5023314;28;20038;-82
2023/06/05 12:11:19;;;;;;;2.50;2.28;;;19.50;99.90;;;;;;5022201;28;20057;-81
2023/06/05 12:13:55;;;;;;;4.05;2.08;;;20.20;99.90;;;;;;5003647;28;20052;-83
2023/06/05 12:16:32;;;;;;;2.35;2.00;;;20.20;99.90;;;;;;5024172;28;20045;-81
2023/06/05 12:18:58;;;;;;;1.80;1.70;;;20.30;99.90;;;;;;5021349;28;20091;-82
2023/06/05 12:21:27;;;;;;;2.35;1.92;;;20.40;99.90;;;;;;5020507;28;20074;-84
2023/06/05 12:24:01;;;;;;;3.38;2.08;;;20.50;99.90;;;;;;5022247;28;20065;-82
2023/06/05 12:26:30;;;;;;;2.67;1.55;;;20.60;99.90;;;;;;5003701;28;20050;-83
2023/06/05 12:29:06;;;;;;;2.05;1.65;;;20.60;99.90;;;;;;5023316;28;20501;-84
2023/06/05 12:31:39;;;;;;;1.52;1.42;;;20.60;99.90;;;;;;5024366;28;20084;-80
2023/06/05 12:34:04;;;;;;;1.83;1.73;;;20.60;99.90;;;;;;5021338;28;20042;-82
2023/06/05 12:36:31;;;;;;;1.20;1.10;;;20.70;99.90;;;;;;5003027;28;20076;-82
2023/06/05 12:39:06;;;;;;;2.58;1.55;;;20.70;99.90;;;;;;5021481;28;20046;-85
2023/06/05 12:41:32;;;;;;;7.35;4.38;;;20.80;99.90;;;;;;5021662;28;20046;-82
2023/06/05 12:44:00;;;;;;;3.60;3.00;;;20.90;99.90;;;;;;5024229;28;20515;-84
2023/06/05 12:46:26;;;;;;;3.20;1.92;;;21.00;99.90;;;;;;5027354;28;20104;-82
2023/06/05 12:48:51;;;;;;;3.03;1.60;;;21.00;99.90;;;;;;5026046;28;20065;-84
2023/06/05 12:51:17;;;;;;;2.55;1.85;;;21.00;99.90;;;;;;5027097;28;20048;-85
2023/06/05 12:53:43;;;;;;;5.43;2.13;;;21.00;99.90;;;;;;5027321;28;20037;-84
2023/06/05 12:56:11;;;;;;;3.85;1.88;;;21.00;99.90;;;;;;5022895;28;20045;-85